St. George Regional Airport

About
Name: St. George Regional Airport
Identifier:  SGU/KSGU
Serves:  St. George, Utah
Owner:  City of St. George
Public/Private:  Public
Local Time:  18. Jul 11:30 MDT
Description: St. George Regional Airport is a city-owned airport six miles southeast of St. George, in Washington County, Utah.
Source: Wikipedia
Location
Runways
Identifier Length (m/ft) Surface
1/19 9,300/9,300 Asphalt
Flights per Day
0 flights
Distance: 100km (62mi)
Punctuality
83% (0 flights per day delayed)
Delay Average: 35 minutes
Current Weather
 32 C (Humidity: 21%)
  4kt (7km/h / 4mph) from 290°
  16km (10 mi.)
 METAR KSGU 181656Z AUTO 29004KT 10SM 32/07 A3000 RMK AO2 SLP117 T03220072

Current Flights

Departures
Number Departure To Airline
Arrivals
Number Arrival From Airline
 5A1848 NA  Cedar City Alpine Air Express

Current Delays

Departures
N/A
Arrivals
N/A

Destinations

Top Destinations
Airport Flights
per week
Seats
per week
  Cedar City (CDC) 4 - 0 0
  Denver (DEN) 0 11 0 1
  Las Vegas (HSH) 0 - 0 0
  Las Vegas (VGT) 0 - 0 0
  Truckee (TKF) 0 - 0 0
  Santa Fe (SAF) 0 - 0 0

Airlines & Planes

Top Airlines
Airline Flights
per Day
Seats
per Day
Alpine Air Express 0 -
  National Airlines 0 -
  SkyWest Airlines 0 1
Jet Charter Inc ( Franklin Lakes Nj ) 0 -
  Novair 0 -
Nordwind Airlines 0 -
Top Plane Types
Model Flights Seats
Beech C-99 Airliner 0.6/day - 0
AgustaWestland AW109 0.0/day - 0
Cessna C172 0.0/day - 0
Bombardier CRJ200 0.0/day 1/day 1.6666666666666667